Ride Results

Faraway Carnival (14-04-2017)
Ride distance: 80.0 km

Outcomes - Faraway Carnival (14-04-2017)
Division No. of Entries Retired / DNE Completed Withdrawn Ineligible V/O Percentage Completed
MW 11 - 9 - - 2 81.82%
LW 9 - 9 - - - 100.00%
JN 6 - 4 - - 2 66.67%
Totals 26 - 22 - - 4 84.62%
Results - Faraway Carnival (14-04-2017)
No. Rider Horse Place Time Leg Speeds Total
Km/Hr
H/R bpm
Middleweight
57 Jamie Green Cameo Mazquerade 1 5:22:45 14.3, 15.3 14.87 31, 50, 52 (Avg:51)
83 Sasha Laws-King Heathfield's Flashrani 1 5:22:45 14.3, 15.3 14.87 39, 45, 48 (Avg:46)
76 Angela Head Touchwarr Kiara 3 6:33:47 12.8, 11.6 12.19 41, 48, 55 (Avg:51)
80 Linda Lochtenberg Matta Mia Kassanova 4 6:38:38 11.9, 12.1 12.04 39, 44, 55 (Avg:49)
58 Esther Rijkenberg Abbeywood Bella 5 7:19:35 11.6, 10.2 10.92 38, 50, 55 (Avg:52)
65 Anna de Nys Hirstglen Mr Grey 6 7:41:30 10.0, 10.7 10.40 36, 47, 57 (Avg:52)
63 Jessyca Dakin Hirstglen Desert Dancer 7 7:45:30 9.4, 11.3 10.31 41, 49, 53 (Avg:51)
81 Brenda Davy Bashan Seth 8 8:24:36 10.3, 8.7 9.51 47, 55, 47 (Avg:51)
71 Rebecca Andrews Maloo Vale Amir Halo 9 8:49:50 10.1, 8.1 9.06 34, 42, 52 (Avg:47)
68 Sue Gurtner Cedarton Achak Abornazine Heart Rate L2 0:00:00 9.7, 9.5 - 32, 50, 62 (Avg:56)
64 Bec Miller El'Maas Ginger Kisses Metabolics moderate L1 0:00:00 10.1 - 37, 55 (Avg:55)
Lightweight
77 Renae Chapman Shanelli-Park Phoenix 1 5:17:17 15.1, 15.1 15.13 42, 49, 53 (Avg:51)
78 Shelley Chapman Box Hill Scout 1 5:17:17 15.1, 15.1 15.13 42, 45, 45 (Avg:45)
61 Jess Langridge Miva Majnoun 3 6:32:20 11.6, 12.8 12.23 31, 49, 57 (Avg:53)
59 Grace Webb Sample Park Zach 3 6:32:20 11.6, 12.8 12.23 36, 47, 60 (Avg:53)
70 Janelle Taylor Elite Samaree 5 7:19:35 11.6, 10.2 10.92 35, 44, 48 (Avg:46)
60 Shelley-ann Kimber Aloha Delos 6 7:46:30 10.3, 10.2 10.29 33, 47, 52 (Avg:49)
62 Anna Wyroslak Sterling's Safari 6 7:46:30 10.3, 10.2 10.29 32, 36, 42 (Avg:39)
67 Jane Fisher Shanzee 8 8:17:12 9.7, 9.5 9.65 34, 43, 29 (Avg:36)
73 Victoria Clarke Ardair Amarok 9 9:36:00 10.1, 7.0 8.33 34, 49, 54 (Avg:51)
Junior
74 Ben Hoey Bellarine Believe 1 6:33:47 12.8, 11.6 12.19 40, 45, 50 (Avg:47)
79 Kayla Watson Quiegly 2 6:38:38 11.9, 12.1 12.04 40, 46, 50 (Avg:48)
66 Alissa Woods Boonara Tex 3 7:46:30 10.1, 10.4 10.29 37, 43, 51 (Avg:47)
82 Hailie Hanson Bashan Silver Nadeer 4 8:24:36 10.3, 8.7 9.51 38, 44, 48 (Avg:46)
72 Chintzia Campo Aston-Martin Heart Rate L2 0:00:00 10.1, 7.0 - 34, 50, 66 (Avg:58)
69 Maeve Paten Alon Dawn Metabolics moderate L1 0:00:00 11.9 - 31, 51 (Avg:51)